Time,TemperatureF,DewpointF,PressureIn,WindDirection,WindDirectionDegrees,WindSpeedMPH,WindSpeedGustMPH,Humidity,HourlyPrecipIn,Conditions,Clouds,dailyrainin,SolarRadiationWatts/m^2,SoftwareType,DateUTC
2013-03-17 00:00:00,32.9,29.7,29.96,North,0,2.0,7.0,88,0.00,,---,0.00,0.00,VWS V14.01,2013-03-17 04:00:00,
2013-03-17 00:30:00,32.6,29.5,29.97,NNW,338,2.0,6.0,88,0.00,,---,0.00,0.00,VWS V14.01,2013-03-17 04:30:00,
2013-03-17 01:00:00,32.3,29.1,29.98,NW,315,2.0,5.0,88,0.00,,---,0.00,0.00,VWS V14.01,2013-03-17 05:00:00,
2013-03-17 01:30:00,32.1,29.0,29.98,NNE,22,1.0,5.0,88,0.00,,---,0.00,0.00,VWS V14.01,2013-03-17 05:30:00,
2013-03-17 02:00:00,32.0,28.9,29.97,NNE,22,1.0,5.0,88,0.00,,---,0.00,0.00,VWS V14.01,2013-03-17 06:00:00,
2013-03-17 02:30:00,32.0,28.9,29.99,NW,315,1.0,5.0,88,0.00,,---,0.00,0.00,VWS V14.01,2013-03-17 06:30:00,
2013-03-17 03:00:00,31.9,28.8,29.99,NW,315,0.0,3.0,88,0.00,,---,0.00,0.00,VWS V14.01,2013-03-17 07:00:00,
2013-03-17 03:30:00,31.9,28.8,29.99,NNW,338,2.0,6.0,88,0.00,,---,0.00,0.00,VWS V14.01,2013-03-17 07:30:00,
2013-03-17 04:00:00,31.7,28.3,30.01,NNW,338,3.0,9.0,87,0.00,,---,0.00,0.00,VWS V14.01,2013-03-17 08:00:00,
2013-03-17 04:30:00,31.5,27.8,30.00,NNE,22,3.0,10.0,86,0.00,,---,0.00,0.00,VWS V14.01,2013-03-17 08:30:00,
2013-03-17 05:00:00,31.2,27.2,30.00,NNE,22,4.0,12.0,85,0.00,,---,0.00,0.00,VWS V14.01,2013-03-17 09:00:00,
2013-03-17 05:30:00,31.1,27.1,30.01,NNE,22,3.0,10.0,85,0.00,,---,0.00,0.00,VWS V14.01,2013-03-17 09:30:00,
2013-03-17 06:00:00,31.1,27.4,30.03,NNE,22,1.0,5.0,86,0.00,,---,0.00,0.00,VWS V14.01,2013-03-17 10:00:00,
2013-03-17 06:30:00,31.1,27.4,30.04,NE,45,1.0,5.0,86,0.00,,---,0.00,0.00,VWS V14.01,2013-03-17 10:30:00,
2013-03-17 07:00:00,31.1,27.4,30.05,NE,45,1.0,4.0,86,0.00,,---,0.00,0.00,VWS V14.01,2013-03-17 11:00:00,
2013-03-17 07:30:00,31.2,27.2,30.09,ENE,68,0.0,4.0,85,0.00,,---,0.00,0.00,VWS V14.01,2013-03-17 11:30:00,
2013-03-17 08:00:00,31.3,27.3,30.10,NE,45,0.0,2.0,85,0.00,,---,0.00,0.00,VWS V14.01,2013-03-17 12:00:00,
2013-03-17 08:30:00,31.4,27.4,30.11,NE,45,0.0,2.0,85,0.00,,---,0.00,7.00,VWS V14.01,2013-03-17 12:30:00,
2013-03-17 09:00:00,31.5,27.5,30.12,NE,45,0.0,2.0,85,0.00,,---,0.00,22.00,VWS V14.01,2013-03-17 13:00:00,
2013-03-17 09:30:00,31.7,27.7,30.13,NE,45,0.0,2.0,85,0.00,,---,0.00,24.00,VWS V14.01,2013-03-17 13:30:00,
2013-03-17 10:00:00,31.9,27.9,30.14,NE,45,0.0,3.0,85,0.00,,---,0.00,34.00,VWS V14.01,2013-03-17 14:00:00,
2013-03-17 10:30:00,32.0,27.7,30.14,ENE,68,1.0,5.0,84,0.00,,---,0.00,51.00,VWS V14.01,2013-03-17 14:30:00,
2013-03-17 11:00:00,32.2,27.3,30.14,NE,45,2.0,6.0,82,0.00,,---,0.00,69.00,VWS V14.01,2013-03-17 15:00:00,
2013-03-17 11:30:00,32.5,27.3,30.13,NE,45,3.0,11.0,81,0.00,,---,0.00,96.00,VWS V14.01,2013-03-17 15:30:00,
2013-03-17 12:00:00,32.4,26.3,30.13,NE,45,4.0,13.0,78,0.00,,---,0.00,89.00,VWS V14.01,2013-03-17 16:00:00,
2013-03-17 12:30:00,32.5,25.8,30.14,ENE,68,3.0,9.0,76,0.00,,---,0.00,115.00,VWS V14.01,2013-03-17 16:30:00,
2013-03-17 13:00:00,33.2,25.5,30.13,NE,45,2.0,11.0,73,0.00,,---,0.00,181.00,VWS V14.01,2013-03-17 17:00:00,
2013-03-17 13:30:00,34.2,25.5,30.12,East,90,3.0,11.0,70,0.00,,---,0.00,291.00,VWS V14.01,2013-03-17 17:30:00,
2013-03-17 14:00:00,35.2,25.4,30.11,NE,45,5.0,13.0,67,0.00,,---,0.00,388.00,VWS V14.01,2013-03-17 18:00:00,
2013-03-17 14:30:00,36.2,26.0,30.10,ENE,68,4.0,10.0,66,0.00,,---,0.00,388.00,VWS V14.01,2013-03-17 18:30:00,
2013-03-17 15:00:00,36.6,26.0,30.09,NE,45,5.0,15.0,65,0.00,,---,0.00,370.00,VWS V14.01,2013-03-17 19:00:00,
2013-03-17 15:30:00,36.8,26.1,30.09,NE,45,5.0,13.0,65,0.00,,---,0.00,334.00,VWS V14.01,2013-03-17 19:30:00,
2013-03-17 16:00:00,37.0,26.3,30.09,NE,45,5.0,12.0,65,0.00,,---,0.00,284.00,VWS V14.01,2013-03-17 20:00:00,
2013-03-17 16:30:00,37.1,26.4,30.09,NE,45,4.0,11.0,65,0.00,,---,0.00,214.00,VWS V14.01,2013-03-17 20:30:00,
2013-03-17 17:00:00,37.4,27.1,30.08,ENE,68,2.0,10.0,66,0.00,,---,0.00,184.00,VWS V14.01,2013-03-17 21:00:00,
2013-03-17 17:30:00,37.4,27.1,30.08,ENE,68,3.0,9.0,66,0.00,,---,0.00,144.00,VWS V14.01,2013-03-17 21:30:00,
2013-03-17 18:00:00,37.3,27.0,30.09,ENE,68,3.0,9.0,66,0.00,,---,0.00,124.00,VWS V14.01,2013-03-17 22:00:00,
2013-03-17 18:30:00,37.3,27.4,30.08,ENE,68,3.0,10.0,67,0.00,,---,0.00,92.00,VWS V14.01,2013-03-17 22:30:00,
2013-03-17 19:00:00,37.1,26.8,30.08,ENE,68,3.0,10.0,66,0.00,,---,0.00,54.00,VWS V14.01,2013-03-17 23:00:00,
2013-03-17 19:30:00,36.8,27.2,30.08,ENE,68,3.0,10.0,68,0.00,,---,0.00,26.00,VWS V14.01,2013-03-17 23:30:00,
2013-03-17 20:00:00,36.0,27.2,30.08,East,90,3.0,11.0,70,0.00,,---,0.00,1.00,VWS V14.01,2013-03-18 00:00:00,
2013-03-17 20:30:00,35.1,27.0,30.09,East,90,3.0,11.0,72,0.00,,---,0.00,0.00,VWS V14.01,2013-03-18 00:30:00,
2013-03-17 21:00:00,34.3,26.6,30.09,ENE,68,3.0,11.0,73,0.00,,---,0.00,0.00,VWS V14.01,2013-03-18 01:00:00,
2013-03-17 21:30:00,33.9,26.5,30.09,East,90,3.0,9.0,74,0.00,,---,0.00,0.00,VWS V14.01,2013-03-18 01:30:00,
2013-03-17 22:00:00,33.8,26.4,30.08,ENE,68,2.0,11.0,74,0.00,,---,0.00,0.00,VWS V14.01,2013-03-18 02:00:00,
2013-03-17 22:30:00,33.6,26.9,30.08,ENE,68,4.0,12.0,76,0.00,,---,0.00,0.00,VWS V14.01,2013-03-18 02:30:00,
2013-03-17 23:00:00,33.3,26.9,30.08,ENE,68,4.0,13.0,77,0.00,,---,0.00,0.00,VWS V14.01,2013-03-18 03:00:00,
2013-03-17 23:30:00,32.9,26.8,30.06,ENE,68,5.0,15.0,78,0.00,,---,0.00,0.00,VWS V14.01,2013-03-18 03:30:00,